Time;durP1;ratioP1;P1;durP2;ratioP2;P2;SDS_P1;SDS_P2;PMS_P1;PMS_P2;Temp;Humidity;BMP_temperature;BMP_pressure;BME280_temperature;BME280_humidity;BME280_pressure;Samples;Min_cycle;Max_cycle;Signal;HPM_P1;HPM_P2
2021/06/18 00:01:39;;;;;;;6.38;3.85;;;;;;;22.59;65.91;99318.19;4991678;28;20494;-66
2021/06/18 00:04:05;;;;;;;9.73;4.45;;;;;;;22.56;65.92;99319.38;4990940;28;20469;-65
2021/06/18 00:06:30;;;;;;;5.53;4.32;;;;;;;22.54;65.79;99321.38;4991099;28;20031;-65
2021/06/18 00:08:56;;;;;;;7.05;4.03;;;;;;;22.49;65.76;99313.81;4989615;28;20097;-67
2021/06/18 00:11:21;;;;;;;9.75;4.68;;;;;;;22.44;65.64;99308.06;4990521;28;20121;-66
2021/06/18 00:13:47;;;;;;;9.93;5.25;;;;;;;22.40;66.35;99309.44;4990931;28;20031;-66
2021/06/18 00:16:12;;;;;;;6.18;3.83;;;;;;;22.36;66.67;99297.31;4990971;28;20097;-66
2021/06/18 00:18:39;;;;;;;7.40;4.45;;;;;;;22.35;66.68;99279.53;4990588;28;20524;-65
2021/06/18 00:21:04;;;;;;;10.60;4.80;;;;;;;22.42;66.25;99274.31;4990704;28;20038;-66
2021/06/18 00:23:30;;;;;;;8.75;4.93;;;;;;;22.48;65.93;99269.16;4990687;28;20096;-66
2021/06/18 00:25:55;;;;;;;8.70;5.22;;;;;;;22.56;65.44;99271.00;4990659;28;20030;-66
2021/06/18 00:28:20;;;;;;;5.60;4.78;;;;;;;22.67;64.66;99272.56;4998217;28;20382;-66
2021/06/18 00:30:46;;;;;;;13.90;4.82;;;;;;;22.80;64.09;99272.91;5010334;28;20037;-65
2021/06/18 00:33:11;;;;;;;9.00;4.68;;;;;;;22.89;63.81;99271.91;5010620;28;20133;-66
2021/06/18 00:35:36;;;;;;;6.72;4.97;;;;;;;22.98;63.50;99280.00;5009987;28;20040;-66
2021/06/18 00:38:02;;;;;;;8.25;4.90;;;;;;;23.05;63.38;99281.00;5009697;28;20437;-65
2021/06/18 00:40:28;;;;;;;8.30;5.18;;;;;;;23.07;63.43;99281.69;5009868;28;20057;-66
2021/06/18 00:42:54;;;;;;;9.25;4.78;;;;;;;23.10;63.31;99286.72;5010101;28;20071;-66
2021/06/18 00:45:19;;;;;;;11.85;4.97;;;;;;;23.08;63.26;99286.88;5009788;28;20037;-66
2021/06/18 00:47:50;;;;;;;8.52;4.93;;;;;;;23.07;63.28;99282.50;5007989;28;20046;-67
2021/06/18 00:50:18;;;;;;;11.45;6.30;;;;;;;23.01;63.40;99285.84;5008193;28;20093;-67
2021/06/18 00:52:44;;;;;;;6.82;4.93;;;;;;;22.99;63.68;99285.22;5008462;28;20045;-66
2021/06/18 00:55:10;;;;;;;14.38;5.60;;;;;;;23.00;63.67;99283.34;4991158;28;20044;-67
2021/06/18 00:57:37;;;;;;;7.50;4.88;;;;;;;22.93;63.67;99280.47;5009720;28;20397;-67
2021/06/18 01:00:07;;;;;;;9.40;5.25;;;;;;;22.88;64.08;99283.66;5010016;28;20030;-66
2021/06/18 01:02:32;;;;;;;7.28;4.93;;;;;;;22.80;64.43;99283.66;4983840;28;20030;-66
2021/06/18 01:04:57;;;;;;;8.70;5.25;;;;;;;22.73;64.50;99283.47;5009962;28;20044;-66
2021/06/18 01:07:30;;;;;;;8.98;5.65;;;;;;;22.66;64.99;99279.75;5006317;28;20121;-66
2021/06/18 01:10:22;;;;;;;7.20;4.50;;;;;;;22.60;65.11;99291.19;5010035;28;20048;-66
2021/06/18 01:13:17;;;;;;;10.27;4.93;;;;;;;22.53;65.31;99275.88;5009781;28;20072;-67
2021/06/18 01:16:03;;;;;;;6.95;5.10;;;;;;;22.42;65.85;99285.94;5008140;28;20045;-67
2021/06/18 01:18:37;;;;;;;10.48;5.60;;;;;;;22.27;66.61;99277.66;4991621;28;20505;-66
2021/06/18 01:21:23;;;;;;;10.07;5.40;;;;;;;22.19;66.75;99268.69;5010045;28;20497;-66
2021/06/18 01:23:48;;;;;;;;;;;;;;;22.21;66.70;99270.25;5001964;28;20038;-66
2021/06/18 01:26:23;;;;;;;8.80;5.23;;;;;;;22.17;66.79;99268.84;4993766;28;19920;-66
2021/06/18 01:28:52;;;;;;;9.38;6.63;;;;;;;22.15;66.88;99262.84;5009017;28;20038;-66
2021/06/18 01:31:21;;;;;;;11.00;4.93;;;;;;;22.10;66.69;99262.44;5001116;28;20038;-67
2021/06/18 01:33:52;;;;;;;19.65;5.30;;;;;;;22.07;66.96;99266.31;5012316;28;20092;-67
2021/06/18 01:36:19;;;;;;;12.05;5.88;;;;;;;22.04;66.97;99274.69;5012945;28;20048;-66
2021/06/18 01:38:47;;;;;;;20.02;5.30;;;;;;;22.02;67.18;99274.00;5012843;28;20046;-66
2021/06/18 01:41:16;;;;;;;8.98;5.10;;;;;;;22.03;67.32;99274.88;5012976;28;20053;-66
2021/06/18 01:43:44;;;;;;;12.88;5.22;;;;;;;22.07;67.16;99270.84;5012578;28;20486;-66
2021/06/18 01:46:13;;;;;;;5.50;4.10;;;;;;;22.10;66.66;99281.25;5013181;28;20465;-66
2021/06/18 01:48:42;;;;;;;7.97;5.55;;;;;;;22.12;66.87;99284.63;5012862;28;20053;-66
2021/06/18 01:51:09;;;;;;;8.30;5.95;;;;;;;22.13;66.92;99288.16;5013330;28;20464;-66
2021/06/18 01:53:36;;;;;;;12.55;6.05;;;;;;;22.01;67.44;99293.81;5013091;28;20053;-66
2021/06/18 01:56:02;;;;;;;9.38;6.57;;;;;;;21.93;67.79;99287.53;5012799;28;20038;-66
2021/06/18 01:58:29;;;;;;;10.10;5.15;;;;;;;21.95;67.82;99281.00;5012493;28;20040;-66
2021/06/18 02:00:55;;;;;;;9.15;5.13;;;;;;;21.96;67.64;99280.03;5012211;28;20563;-66
2021/06/18 02:03:26;;;;;;;12.80;6.25;;;;;;;21.96;67.66;99281.88;5011268;28;20065;-66
2021/06/18 02:05:54;;;;;;;9.98;6.68;;;;;;;21.92;67.96;99283.19;5011239;28;20030;-66
2021/06/18 02:08:20;;;;;;;8.90;5.63;;;;;;;21.89;67.99;99278.16;5010402;28;20053;-66
2021/06/18 02:10:50;;;;;;;7.30;5.20;;;;;;;21.92;67.65;99280.50;5010670;28;20069;-66
2021/06/18 02:13:16;;;;;;;8.95;5.93;;;;;;;21.94;67.54;99284.72;5010569;28;20030;-66
2021/06/18 02:15:43;;;;;;;11.73;6.82;;;;;;;21.93;67.70;99284.88;5010609;28;20524;-66
2021/06/18 02:18:13;;;;;;;6.72;5.70;;;;;;;21.92;67.96;99284.03;5010362;28;20113;-66
2021/06/18 02:20:39;;;;;;;11.13;6.38;;;;;;;21.89;67.93;99284.34;5011273;28;20117;-66
2021/06/18 02:23:08;;;;;;;8.95;5.07;;;;;;;21.87;67.66;99287.19;5011035;28;20121;-66
2021/06/18 02:25:34;;;;;;;14.40;6.43;;;;;;;21.87;67.52;99272.94;5011053;28;20066;-66
2021/06/18 02:28:01;;;;;;;11.20;6.15;;;;;;;21.84;68.06;99270.59;5010785;28;20109;-66
2021/06/18 02:30:27;;;;;;;10.05;6.55;;;;;;;21.81;68.17;99262.84;5011916;28;20026;-66
2021/06/18 02:32:56;;;;;;;9.45;6.53;;;;;;;21.80;68.03;99264.69;5011837;28;20505;-66
2021/06/18 02:35:23;;;;;;;11.88;6.55;;;;;;;21.74;68.08;99269.88;5010854;28;20041;-66
2021/06/18 02:37:48;;;;;;;11.60;5.88;;;;;;;21.70;68.25;99268.50;5011569;28;20037;-67
2021/06/18 02:40:13;;;;;;;7.35;5.43;;;;;;;21.64;68.87;99260.09;5012309;28;20042;-64
2021/06/18 02:42:39;;;;;;;11.82;6.05;;;;;;;21.65;68.41;99272.47;5011243;28;20034;-66
2021/06/18 02:45:05;;;;;;;11.02;6.72;;;;;;;21.65;68.60;99277.00;5011075;28;20169;-66
2021/06/18 02:47:39;;;;;;;12.35;6.68;;;;;;;21.64;68.48;99269.97;5010555;28;20030;-66
2021/06/18 02:50:12;;;;;;;10.05;6.22;;;;;;;21.69;68.61;99275.72;5010850;28;20038;-66
2021/06/18 02:53:06;;;;;;;11.57;5.65;;;;;;;21.72;68.48;99275.38;5010788;28;20037;-66
2021/06/18 02:55:42;;;;;;;8.20;6.88;;;;;;;21.71;68.48;99270.16;4997558;28;20066;-66
2021/06/18 02:58:17;;;;;;;12.52;6.63;;;;;;;21.69;68.57;99264.97;5012766;28;20393;-67
2021/06/18 03:00:43;;;;;;;13.55;6.72;;;;;;;21.71;68.44;99264.78;5012010;28;20483;-66
2021/06/18 03:03:11;;;;;;;10.10;6.75;;;;;;;21.69;68.50;99267.66;5011269;28;20042;-67
2021/06/18 03:05:39;;;;;;;11.82;7.00;;;;;;;21.68;68.46;99271.31;5011511;28;20114;-66
2021/06/18 03:08:08;;;;;;;9.70;7.03;;;;;;;21.63;68.75;99262.91;5011252;28;20124;-67
2021/06/18 03:10:37;;;;;;;8.93;5.63;;;;;;;21.53;69.34;99267.56;5011456;28;20156;-67
2021/06/18 03:13:09;;;;;;;8.93;6.28;;;;;;;21.43;69.52;99267.66;5010609;28;20038;-66
2021/06/18 03:15:40;;;;;;;9.43;5.88;;;;;;;21.41;69.61;99264.28;5006872;28;20033;-67
2021/06/18 03:18:07;;;;;;;10.80;5.82;;;;;;;21.40;69.46;99271.50;5006608;28;20065;-67
2021/06/18 03:20:35;;;;;;;13.38;5.45;;;;;;;21.38;69.38;99259.22;5009976;28;20030;-67
2021/06/18 03:23:02;;;;;;;8.93;5.50;;;;;;;21.38;69.42;99267.25;5009823;28;20038;-66
2021/06/18 03:25:29;;;;;;;10.02;5.95;;;;;;;21.37;69.43;99271.78;5009708;28;20175;-67
2021/06/18 03:27:56;;;;;;;14.23;7.03;;;;;;;21.37;69.64;99276.31;5009081;28;20087;-66
2021/06/18 03:30:22;;;;;;;12.55;5.75;;;;;;;21.36;69.62;99279.97;5010210;28;20034;-66
2021/06/18 03:32:49;;;;;;;15.18;6.28;;;;;;;21.33;69.80;99281.13;5009753;28;20140;-66
2021/06/18 03:35:16;;;;;;;14.32;6.55;;;;;;;21.29;69.87;99279.78;5009778;28;20037;-67
2021/06/18 03:37:42;;;;;;;7.22;5.72;;;;;;;21.33;69.75;99272.25;5009341;28;20030;-67
2021/06/18 03:40:08;;;;;;;13.38;6.30;;;;;;;21.32;69.67;99279.47;5009763;28;20037;-67
2021/06/18 03:42:36;;;;;;;13.27;7.35;;;;;;;21.35;69.76;99289.03;5010128;28;20035;-67
2021/06/18 03:45:04;;;;;;;13.35;7.50;;;;;;;21.34;69.59;99290.88;5010050;28;20113;-67
2021/06/18 03:47:31;;;;;;;11.77;6.78;;;;;;;21.38;69.57;99286.88;5009409;28;20040;-66
2021/06/18 03:49:57;;;;;;;9.15;7.10;;;;;;;21.40;69.75;99290.28;5009623;28;20026;-67
2021/06/18 03:52:22;;;;;;;14.02;6.75;;;;;;;21.44;69.42;99290.81;5010087;28;20036;-65
2021/06/18 03:54:48;;;;;;;14.80;7.05;;;;;;;21.46;69.70;99290.63;5009266;28;20030;-66
2021/06/18 03:57:17;;;;;;;8.90;6.25;;;;;;;21.47;69.43;99292.34;5009116;28;20476;-65
2021/06/18 03:59:43;;;;;;;12.57;6.15;;;;;;;21.53;69.50;99297.91;5009098;28;20038;-66
2021/06/18 04:02:11;;;;;;;14.25;6.70;;;;;;;21.56;69.39;99291.38;5009323;28;20069;-66
2021/06/18 04:04:37;;;;;;;9.30;6.03;;;;;;;21.57;69.51;99288.53;5009616;28;20105;-66
2021/06/18 04:07:06;;;;;;;6.72;6.05;;;;;;;21.61;69.21;99286.41;5008981;28;20046;-65
2021/06/18 04:09:32;;;;;;;14.90;8.07;;;;;;;21.64;69.38;99281.53;5009236;28;20034;-66
2021/06/18 04:12:00;;;;;;;8.10;6.18;;;;;;;21.70;69.20;99271.19;5009064;28;20029;-65
2021/06/18 04:14:27;;;;;;;8.77;5.90;;;;;;;21.76;69.30;99267.88;5009045;28;20040;-66
2021/06/18 04:16:53;;;;;;;10.32;6.45;;;;;;;21.84;68.96;99275.94;5009022;28;20034;-66
2021/06/18 04:19:18;;;;;;;11.45;6.22;;;;;;;21.83;69.07;99269.75;5008982;28;20410;-66
2021/06/18 04:21:44;;;;;;;7.78;6.43;;;;;;;21.88;68.48;99271.97;5008860;28;20041;-66
2021/06/18 04:24:14;;;;;;;13.65;7.32;;;;;;;21.95;68.54;99269.44;5007827;28;20084;-66
2021/06/18 04:26:41;;;;;;;10.05;7.13;;;;;;;21.95;68.58;99280.19;5008454;28;20141;-66
2021/06/18 04:29:06;;;;;;;14.40;7.75;;;;;;;21.95;68.59;99278.34;5008393;28;20116;-67
2021/06/18 04:31:31;;;;;;;13.70;8.05;;;;;;;21.95;68.79;99282.88;5008783;28;20129;-66
2021/06/18 04:33:57;;;;;;;10.95;6.63;;;;;;;21.99;68.65;99285.06;5008928;28;20125;-66
2021/06/18 04:36:22;;;;;;;12.68;6.85;;;;;;;22.08;68.33;99278.75;5008725;28;20100;-66
2021/06/18 04:38:47;;;;;;;10.38;6.18;;;;;;;22.22;68.06;99271.09;5008100;28;20045;-66
2021/06/18 04:41:13;;;;;;;11.45;6.50;;;;;;;22.34;67.54;99266.25;5008428;28;20129;-66
2021/06/18 04:43:38;;;;;;;9.55;5.32;;;;;;;22.44;67.46;99258.91;5008346;28;20509;-66
2021/06/18 04:46:03;;;;;;;10.05;7.20;;;;;;;22.54;66.89;99266.81;5008639;28;20034;-66
2021/06/18 04:48:29;;;;;;;16.02;6.97;;;;;;;22.66;66.62;99263.63;5008298;28;20083;-66
2021/06/18 04:50:55;;;;;;;14.30;7.70;;;;;;;22.73;66.85;99261.13;5008319;28;20176;-66
2021/06/18 04:53:21;;;;;;;9.35;7.38;;;;;;;22.82;66.51;99262.00;5009109;28;20133;-66
2021/06/18 04:55:46;;;;;;;17.55;8.40;;;;;;;22.89;66.37;99263.00;5008647;28;20394;-66
2021/06/18 04:58:13;;;;;;;16.42;7.55;;;;;;;23.00;65.93;99269.91;5007638;28;20033;-66
2021/06/18 05:00:38;;;;;;;17.65;8.50;;;;;;;23.11;65.73;99270.41;5008604;28;20042;-67
2021/06/18 05:03:04;;;;;;;10.45;9.05;;;;;;;23.25;65.26;99285.03;5013135;28;20501;-67
2021/06/18 05:05:29;;;;;;;16.20;8.32;;;;;;;23.40;64.73;99290.56;5008340;28;20497;-66
2021/06/18 05:07:56;;;;;;;20.85;9.70;;;;;;;23.57;64.38;99280.59;5008280;28;20143;-66
2021/06/18 05:10:23;;;;;;;14.02;9.57;;;;;;;23.62;63.75;99280.91;5008908;28;20592;-66
2021/06/18 05:12:49;;;;;;;12.95;8.85;;;;;;;23.70;63.56;99294.38;5008299;28;20510;-66
2021/06/18 05:15:15;;;;;;;13.25;9.20;;;;;;;23.82;63.22;99296.72;5003186;28;20115;-66
2021/06/18 05:17:40;;;;;;;11.98;8.90;;;;;;;23.83;63.17;99310.03;5007953;28;20033;-67
2021/06/18 05:20:06;;;;;;;21.55;8.32;;;;;;;23.86;63.62;99323.13;5005199;28;20473;-67
2021/06/18 05:22:32;;;;;;;16.67;10.30;;;;;;;23.88;63.44;99328.34;5009658;28;20103;-66
2021/06/18 05:24:58;;;;;;;14.95;8.90;;;;;;;23.93;63.71;99325.97;5007862;28;20489;-66
2021/06/18 05:27:23;;;;;;;21.92;10.63;;;;;;;23.87;63.12;99323.97;5008379;28;20533;-66
2021/06/18 05:29:49;;;;;;;13.27;8.57;;;;;;;24.02;62.64;99316.84;5008522;28;20144;-67
2021/06/18 05:32:16;;;;;;;14.75;9.60;;;;;;;24.02;62.67;99327.59;5008424;28;20057;-66
2021/06/18 05:34:42;;;;;;;11.90;8.98;;;;;;;24.03;62.69;99329.31;5008740;28;20437;-65
2021/06/18 05:37:08;;;;;;;11.02;7.72;;;;;;;24.09;62.52;99327.75;5008244;28;20038;-66
2021/06/18 05:39:33;;;;;;;10.52;7.75;;;;;;;24.19;62.57;99323.88;5008141;28;20041;-66
2021/06/18 05:41:58;;;;;;;13.02;8.05;;;;;;;24.31;61.89;99327.00;5007886;28;20038;-64
2021/06/18 05:44:24;;;;;;;17.00;9.10;;;;;;;24.43;61.09;99333.69;5006462;28;20042;-66
2021/06/18 05:46:49;;;;;;;13.73;9.25;;;;;;;24.55;61.64;99330.63;5007542;28;20037;-68
2021/06/18 05:49:14;;;;;;;15.73;7.72;;;;;;;24.64;61.46;99325.03;5007261;28;20042;-65
2021/06/18 05:51:40;;;;;;;14.10;8.95;;;;;;;24.73;61.14;99330.34;5008198;28;20054;-66
2021/06/18 05:54:05;;;;;;;13.45;8.32;;;;;;;24.80;60.51;99326.75;5008202;28;20030;-66
2021/06/18 05:56:30;;;;;;;11.60;8.23;;;;;;;24.80;61.13;99325.94;5007720;28;20057;-66
2021/06/18 05:58:56;;;;;;;9.60;8.60;;;;;;;24.78;60.99;99319.88;5007687;28;20033;-66
2021/06/18 06:01:21;;;;;;;8.45;6.68;;;;;;;24.80;61.19;99320.53;5008037;28;20026;-66
2021/06/18 06:03:46;;;;;;;14.00;9.07;;;;;;;24.79;61.05;99318.88;5007790;28;20099;-66
2021/06/18 06:06:12;;;;;;;14.57;9.68;;;;;;;24.70;60.67;99314.53;5007405;28;20038;-65
2021/06/18 06:08:37;;;;;;;15.45;8.57;;;;;;;24.65;61.09;99309.69;5008233;28;20036;-65
2021/06/18 06:11:04;;;;;;;12.95;9.65;;;;;;;24.60;60.72;99310.22;5011721;28;20029;-66
2021/06/18 06:13:29;;;;;;;25.25;10.52;;;;;;;24.56;61.00;99303.50;5011268;28;20041;-66
2021/06/18 06:15:55;;;;;;;16.85;10.10;;;;;;;24.51;60.91;99305.88;5011512;28;20042;-65
2021/06/18 06:18:20;;;;;;;15.60;10.75;;;;;;;24.46;61.45;99302.03;5011059;28;20037;-66
2021/06/18 06:20:48;;;;;;;17.98;9.77;;;;;;;24.42;61.22;99309.63;5010970;28;20038;-66
2021/06/18 06:23:14;;;;;;;14.85;10.15;;;;;;;24.42;61.61;99312.31;5011290;28;20042;-67
2021/06/18 06:25:40;;;;;;;17.02;11.23;;;;;;;24.42;61.62;99312.31;5011249;28;20113;-67
2021/06/18 06:28:07;;;;;;;17.65;11.35;;;;;;;24.41;61.37;99316.00;5010760;28;20026;-67
2021/06/18 06:30:33;;;;;;;14.10;10.52;;;;;;;24.36;61.46;99304.91;5010706;28;20041;-67
2021/06/18 06:32:59;;;;;;;12.38;8.73;;;;;;;24.37;61.71;99306.63;5011000;28;20039;-67
2021/06/18 06:35:25;;;;;;;17.15;10.90;;;;;;;24.39;61.83;99300.03;5011206;28;20038;-66
2021/06/18 06:37:51;;;;;;;17.33;10.77;;;;;;;24.39;61.93;99310.81;5010644;28;20060;-67
2021/06/18 06:40:17;;;;;;;12.13;9.55;;;;;;;24.40;62.36;99306.25;5010760;28;20034;-67
2021/06/18 06:42:42;;;;;;;21.30;10.73;;;;;;;24.47;62.02;99306.44;5010960;28;20022;-66
2021/06/18 06:45:08;;;;;;;13.77;10.50;;;;;;;24.46;62.29;99307.44;5010056;28;20037;-67
2021/06/18 06:47:34;;;;;;;13.18;9.23;;;;;;;24.43;62.08;99300.50;5010719;28;20491;-66
2021/06/18 06:49:59;;;;;;;18.10;12.40;;;;;;;24.43;62.28;99303.19;5010805;28;20397;-67
2021/06/18 06:52:24;;;;;;;28.35;10.90;;;;;;;24.30;62.80;99298.38;5011363;28;20026;-66
2021/06/18 06:54:50;;;;;;;21.35;11.90;;;;;;;24.28;63.04;99310.34;5010420;28;20374;-66
2021/06/18 06:57:16;;;;;;;17.02;11.93;;;;;;;24.31;62.87;99310.00;5010223;28;20080;-66
2021/06/18 06:59:42;;;;;;;16.17;9.73;;;;;;;24.32;62.46;99309.84;5010419;28;20108;-66
2021/06/18 07:02:08;;;;;;;15.40;11.38;;;;;;;24.26;62.74;99328.53;5010436;28;20089;-67
2021/06/18 07:04:34;;;;;;;14.57;12.02;;;;;;;24.22;62.71;99322.69;5010511;28;20042;-65
2021/06/18 07:07:00;;;;;;;16.80;11.98;;;;;;;24.17;62.96;99327.75;5010118;28;20336;-67
2021/06/18 07:09:25;;;;;;;15.00;12.10;;;;;;;24.19;63.19;99331.94;5011016;28;20117;-66
2021/06/18 07:11:51;;;;;;;20.23;11.77;;;;;;;24.20;63.06;99348.94;5009749;28;20482;-65
2021/06/18 07:14:16;;;;;;;20.05;13.55;;;;;;;24.12;62.65;99339.03;5008903;28;20049;-67
2021/06/18 07:16:41;;;;;;;22.05;13.02;;;;;;;24.13;62.57;99335.31;5004175;28;20065;-67
2021/06/18 07:19:07;;;;;;;19.40;12.30;;;;;;;24.17;62.78;99339.38;5009785;28;20034;-68
2021/06/18 07:21:32;;;;;;;12.90;10.30;;;;;;;24.29;62.33;99345.19;5009589;28;20034;-67
2021/06/18 07:23:57;;;;;;;11.35;10.25;;;;;;;24.38;61.89;99337.91;5009759;28;20038;-66
2021/06/18 07:26:23;;;;;;;18.38;11.00;;;;;;;24.49;61.33;99340.28;5007988;28;20549;-67
2021/06/18 07:28:48;;;;;;;16.20;10.98;;;;;;;24.66;61.01;99337.47;5009637;28;20061;-67
2021/06/18 07:31:15;;;;;;;16.90;10.88;;;;;;;24.83;60.83;99341.75;5010058;28;20033;-67
2021/06/18 07:33:40;;;;;;;19.20;14.35;;;;;;;24.96;60.77;99341.16;5009937;28;20208;-66
2021/06/18 07:36:06;;;;;;;20.63;10.15;;;;;;;25.16;60.21;99346.94;5009698;28;20121;-67
2021/06/18 07:38:31;;;;;;;20.52;11.70;;;;;;;25.27;60.42;99344.66;5009360;28;20384;-67
2021/06/18 07:40:56;;;;;;;21.83;11.60;;;;;;;25.45;59.77;99346.22;5009516;28;20038;-67
2021/06/18 07:43:22;;;;;;;26.15;12.93;;;;;;;25.51;59.48;99339.25;5010389;28;20037;-66
2021/06/18 07:45:47;;;;;;;32.05;15.57;;;;;;;25.43;59.41;99345.56;5009512;28;20030;-67
2021/06/18 07:48:12;;;;;;;20.95;14.88;;;;;;;25.46;59.48;99345.19;5009083;28;20038;-66
2021/06/18 07:50:40;;;;;;;36.55;14.38;;;;;;;25.39;59.30;99339.66;5009243;28;20065;-67
2021/06/18 07:53:05;;;;;;;19.17;12.48;;;;;;;25.53;58.57;99342.59;5008789;28;20037;-66
2021/06/18 07:55:31;;;;;;;19.55;11.63;;;;;;;25.95;57.80;99335.78;5008988;28;20041;-66
2021/06/18 07:57:57;;;;;;;15.27;10.57;;;;;;;26.15;56.99;99336.06;5007335;28;20030;-66
2021/06/18 08:00:23;;;;;;;23.52;12.55;;;;;;;26.19;56.77;99330.09;5008213;28;20030;-67
2021/06/18 08:02:48;;;;;;;21.90;13.85;;;;;;;26.47;56.42;99332.09;5009049;28;20054;-66
2021/06/18 08:05:15;;;;;;;19.10;13.70;;;;;;;26.76;55.45;99331.22;5008970;28;20034;-66
2021/06/18 08:07:41;;;;;;;16.80;12.48;;;;;;;26.82;54.49;99326.91;4999736;28;20038;-66
2021/06/18 08:10:09;;;;;;;20.83;13.05;;;;;;;26.70;54.20;99323.88;5016403;28;20030;-66
2021/06/18 08:12:35;;;;;;;16.58;11.70;;;;;;;26.79;54.04;99324.59;5008605;28;20052;-66
2021/06/18 08:15:00;;;;;;;18.92;12.60;;;;;;;26.69;53.89;99323.03;5008699;28;20101;-67
2021/06/18 08:17:26;;;;;;;18.17;10.30;;;;;;;26.74;54.10;99327.88;4999792;28;20034;-66
2021/06/18 08:19:52;;;;;;;18.35;10.55;;;;;;;26.95;53.56;99325.19;5000175;28;20049;-66
2021/06/18 08:22:17;;;;;;;17.02;10.65;;;;;;;27.38;52.35;99321.66;5001750;28;20048;-71
2021/06/18 08:24:44;;;;;;;19.10;10.85;;;;;;;27.48;51.82;99330.25;4987871;28;20428;-73
2021/06/18 08:27:09;;;;;;;32.88;11.30;;;;;;;27.63;51.63;99324.75;4983018;28;20066;-73
2021/06/18 08:29:36;;;;;;;14.48;9.95;;;;;;;27.88;50.18;99321.63;4989028;28;20046;-72
2021/06/18 08:32:01;;;;;;;10.82;9.30;;;;;;;28.25;50.13;99321.19;5002995;28;20045;-73
2021/06/18 08:34:27;;;;;;;27.17;9.40;;;;;;;28.53;49.60;99314.03;5004975;28;20034;-73
2021/06/18 08:36:52;;;;;;;12.45;8.43;;;;;;;28.65;49.16;99315.13;4996705;28;20106;-72
2021/06/18 08:39:18;;;;;;;15.88;8.73;;;;;;;28.62;48.98;99307.38;5005536;28;20042;-73
2021/06/18 08:41:44;;;;;;;19.55;11.25;;;;;;;28.50;49.74;99309.84;5002238;28;20039;-74
2021/06/18 08:44:09;;;;;;;13.77;8.35;;;;;;;28.56;50.04;99308.22;4987677;28;20046;-74
2021/06/18 08:46:35;;;;;;;12.10;9.38;;;;;;;28.81;48.99;99306.59;4987168;28;20042;-73
2021/06/18 08:49:00;;;;;;;18.08;11.00;;;;;;;28.68;49.21;99303.84;4985312;28;20465;-74
2021/06/18 08:51:26;;;;;;;18.83;8.65;;;;;;;28.75;48.79;99307.44;4985355;28;20054;-73
2021/06/18 08:53:51;;;;;;;17.75;10.15;;;;;;;29.17;47.83;99305.44;4995760;28;20041;-73
2021/06/18 08:56:18;;;;;;;14.63;6.95;;;;;;;29.35;47.28;99312.13;5004063;28;20107;-74
2021/06/18 08:58:43;;;;;;;10.52;7.50;;;;;;;29.36;47.06;99302.91;5001442;28;20060;-74
2021/06/18 09:01:09;;;;;;;14.23;7.95;;;;;;;29.60;46.57;99301.44;5002808;28;20120;-73
2021/06/18 09:03:46;;;;;;;12.10;7.30;;;;;;;29.61;44.66;99298.53;5004518;28;20038;-77
2021/06/18 09:06:22;;;;;;;13.77;7.75;;;;;;;30.18;43.08;99301.53;5005089;28;20129;-74
2021/06/18 09:09:22;;;;;;;12.52;5.60;;;;;;;30.45;41.50;99285.16;5004460;28;20045;-74
2021/06/18 09:11:54;;;;;;;12.00;6.05;;;;;;;30.21;42.25;99286.69;5003260;28;20038;-73
2021/06/18 09:14:36;;;;;;;14.95;6.75;;;;;;;30.35;41.91;99291.03;5000099;28;22164;-73
2021/06/18 09:17:24;;;;;;;11.32;6.78;;;;;;;30.07;43.38;99283.16;4973187;28;20050;-73
2021/06/18 09:19:52;;;;;;;16.75;7.05;;;;;;;30.33;42.39;99285.81;4998443;28;20050;-72
2021/06/18 09:22:37;;;;;;;11.23;5.72;;;;;;;30.98;41.21;99291.09;4970531;28;20394;-72
2021/06/18 09:25:10;;;;;;;12.77;6.50;;;;;;;31.33;40.27;99278.88;4969911;28;20038;-73
2021/06/18 09:27:41;;;;;;;12.38;6.15;;;;;;;32.16;38.73;99278.50;4978270;28;20133;-74
2021/06/18 09:30:22;;;;;;;10.27;5.85;;;;;;;32.82;37.31;99278.69;5005655;28;20034;-73
2021/06/18 09:33:23;;;;;;;10.07;5.68;;;;;;;33.27;35.74;99270.81;5010020;28;20030;-74
2021/06/18 09:36:04;;;;;;;11.05;6.68;;;;;;;33.86;35.02;99259.91;5002947;28;20042;-72
2021/06/18 09:38:42;;;;;;;12.07;7.00;;;;;;;33.81;34.55;99258.97;4993450;28;20137;-72
2021/06/18 09:41:29;;;;;;;9.88;5.70;;;;;;;34.32;33.01;99254.56;5009711;28;20128;-73
2021/06/18 09:44:00;;;;;;;10.35;5.47;;;;;;;34.36;32.83;99251.13;4999631;28;20031;-72
2021/06/18 09:46:48;;;;;;;8.38;5.03;;;;;;;34.21;32.15;99256.25;4992501;28;20038;-73
2021/06/18 09:49:34;;;;;;;14.00;5.72;;;;;;;34.28;31.45;99248.75;5001045;28;20034;-73
2021/06/18 09:52:03;;;;;;;8.98;4.97;;;;;;;34.73;30.36;99258.94;5016283;28;20034;-72
2021/06/18 09:54:31;;;;;;;11.00;5.00;;;;;;;35.28;29.28;99262.88;5032487;28;20038;-74
2021/06/18 09:57:14;;;;;;;13.63;4.82;;;;;;;34.50;31.01;99262.56;5012089;28;20516;-73
2021/06/18 09:59:48;;;;;;;13.05;5.25;;;;;;;33.56;31.88;99258.16;5011146;28;20042;-74
2021/06/18 10:02:14;;;;;;;9.52;4.55;;;;;;;33.23;33.16;99253.25;5022134;28;20029;-73
2021/06/18 10:04:41;;;;;;;11.27;4.63;;;;;;;32.99;34.08;99257.81;5004977;28;20037;-72
2021/06/18 10:07:09;;;;;;;16.95;4.97;;;;;;;32.77;33.37;99257.53;4995989;28;20031;-74
2021/06/18 10:09:38;;;;;;;22.42;7.50;;;;;;;32.71;33.02;99255.72;4995222;28;20732;-72
2021/06/18 10:12:04;;;;;;;9.40;3.75;;;;;;;32.51;33.70;99253.28;5007319;28;20045;-74
2021/06/18 10:14:30;;;;;;;14.07;4.78;;;;;;;32.31;34.19;99259.00;5012395;28;20064;-74
2021/06/18 10:16:56;;;;;;;8.57;4.72;;;;;;;32.37;33.68;99251.81;5006595;28;20501;-72
2021/06/18 10:19:22;;;;;;;9.40;4.68;;;;;;;33.34;31.98;99257.06;5019989;28;20045;-74
2021/06/18 10:21:55;;;;;;;16.08;5.63;;;;;;;34.40;31.42;99257.75;5014575;28;20437;-73
2021/06/18 10:24:24;;;;;;;9.50;4.20;;;;;;;35.08;29.38;99248.84;5002723;28;20042;-74
2021/06/18 10:26:55;;;;;;;10.00;4.10;;;;;;;35.49;27.95;99247.56;5010585;28;20053;-73
2021/06/18 10:29:31;;;;;;;10.10;4.85;;;;;;;35.72;26.52;99248.50;5001910;28;20038;-74
2021/06/18 10:31:57;;;;;;;6.55;3.83;;;;;;;35.01;26.70;99247.09;4993267;28;20690;-75
2021/06/18 10:34:37;;;;;;;12.55;4.15;;;;;;;34.38;25.80;99237.16;5004261;28;20082;-75
2021/06/18 10:37:21;;;;;;;11.02;3.95;;;;;;;34.52;26.22;99248.66;5006536;28;20413;-76
2021/06/18 10:39:58;;;;;;;7.25;4.22;;;;;;;34.99;26.28;99241.00;4982594;28;20134;-75
2021/06/18 10:42:24;;;;;;;10.02;3.63;;;;;;;34.66;26.80;99241.84;4996576;28;20034;-73
2021/06/18 10:44:52;;;;;;;6.82;3.95;;;;;;;35.25;26.20;99228.59;4995340;28;20533;-72
2021/06/18 10:47:23;;;;;;;9.15;3.97;;;;;;;35.81;24.53;99225.00;4994775;28;20041;-73
2021/06/18 10:49:53;;;;;;;9.88;4.18;;;;;;;35.64;24.91;99225.03;4993067;28;20038;-75
2021/06/18 10:52:21;;;;;;;7.03;3.55;;;;;;;36.45;24.03;99222.50;4993849;28;20038;-72
2021/06/18 10:55:00;;;;;;;13.13;4.13;;;;;;;36.51;23.39;99212.38;4992024;28;20080;-74
2021/06/18 10:57:27;;;;;;;6.72;3.58;;;;;;;36.52;23.57;99214.84;4999668;28;20056;-74
2021/06/18 10:59:55;;;;;;;6.00;3.45;;;;;;;36.51;23.49;99215.13;4986175;28;20585;-72
2021/06/18 11:02:20;;;;;;;7.90;3.70;;;;;;;36.43;23.61;99210.94;4988424;28;20445;-73
2021/06/18 11:04:46;;;;;;;11.93;4.83;;;;;;;36.16;23.99;99202.69;4985718;28;20044;-73
2021/06/18 11:07:31;;;;;;;10.73;3.33;;;;;;;35.73;23.88;99203.50;5002958;28;20335;-74
2021/06/18 11:09:58;;;;;;;9.02;4.13;;;;;;;35.34;24.49;99208.97;5005178;28;20060;-74
2021/06/18 11:12:26;;;;;;;12.65;3.72;;;;;;;35.03;25.91;99208.50;5004899;28;20046;-74
2021/06/18 11:14:56;;;;;;;6.85;4.25;;;;;;;34.87;25.72;99203.84;4995487;28;20066;-75
2021/06/18 11:17:40;;;;;;;9.23;4.00;;;;;;;34.97;26.09;99202.06;4985065;28;20046;-74
2021/06/18 11:20:07;;;;;;;9.17;3.60;;;;;;;34.60;26.43;99205.28;4991301;28;20034;-73
2021/06/18 11:22:47;;;;;;;10.77;4.45;;;;;;;34.57;26.54;99202.19;5007198;28;20073;-73
2021/06/18 11:25:36;;;;;;;12.98;4.25;;;;;;;33.96;28.73;99207.31;5007195;28;20034;-72
2021/06/18 11:28:17;;;;;;;6.60;4.18;;;;;;;33.75;29.19;99208.81;5006736;28;20058;-73
2021/06/18 11:30:53;;;;;;;14.10;3.63;;;;;;;33.51;29.39;99211.53;5012678;28;20727;-72
2021/06/18 11:33:46;;;;;;;7.47;3.78;;;;;;;33.25;30.12;99204.69;5026260;28;20053;-72